Flight Track Log - Related Links

Times and Time Zones

All times are in EST time to prevent confusion due to time zone crossing. See the N713MD flight status page for this flight to view local times or setup timezone preferences in your user account.

Time Position Orientation Groundspeed Altitude Reporting Facility
EST Latitude Longitude Course Direction KTS MPH feet Rate Location/Type
Sun 08:01:12 PM 30.1089 -90.0275 North 192 221 2,300  Level Houston Center
Sun 08:02:13 PM 30.1628 -90.0131 13° North 205 236 4,300 1,688 Climbing Houston Center
Sun 08:02:16 PM 30.1592 -90.0183 232° Southwest 196 226 4,100 2,063 Descending Houston Center
Sun 08:03:17 PM 30.1597 -89.9497 89° East 189 217 6,500 2,237 Climbing Houston Center
Sun 08:04:14 PM 30.1506 -89.8911 100° East 193 222 8,500 1,935 Climbing Houston Center
Sun 08:04:19 PM 30.1514 -89.8881 72° East 191 220 8,500 1,818 Level Houston Center
Sun 08:05:20 PM 30.1456 -89.8242 96° East 199 229 10,500 1,869 Climbing Houston Center
Sun 08:06:21 PM 30.1433 -89.7589 92° East 204 235 12,300 1,610 Climbing Houston Center
Sun 08:07:23 PM 30.1331 -89.6933 100° East 208 239 13,800 1,317 Climbing Houston Center
Sun 08:08:24 PM 30.1211 -89.6211 101° East 224 258 15,000 585 Climbing Houston Center
Sun 08:09:26 PM 30.1033 -89.5156 101° East 273 314 15,000  Level Houston Center
Sun 08:10:27 PM 30.0992 -89.4178 93° East 310 357 15,000  Level Houston Center
Sun 08:11:29 PM 30.1347 -89.3244 66° East 320 368 15,000  Level Houston Center
Sun 08:12:30 PM 30.1697 -89.2292 67° East 322 371 15,000  Level Houston Center
Sun 08:13:31 PM 30.2067 -89.1353 65° Northeast 323 372 15,000  Level Houston Center
Sun 08:14:33 PM 30.2428 -89.0414 66° East 321 369 15,000  Level Houston Center
Sun 08:15:34 PM 30.2844 -88.9322 66° East 322 371 15,000  Level Houston Center
Sun 08:16:36 PM 30.3200 -88.8378 66° East 322 371 15,000 -244 Level Houston Center
Sun 08:17:37 PM 30.3550 -88.7425 67° East 323 372 14,500 -934 Descending Houston Center
Sun 08:18:38 PM 30.3903 -88.6494 66° East 318 366 13,100 -1,415 Descending Houston Center
Sun 08:19:40 PM 30.4247 -88.5589 66° East 312 359 11,600 -1,512 Descending Houston Center
Sun 08:20:41 PM 30.4572 -88.4692 67° East 306 352 10,000 -1,463 Descending Houston Center
Sun 08:21:43 PM 30.4908 -88.3831 66° East 300 345 8,600 -1,610 Descending Houston Center
Sun 08:22:44 PM 30.5253 -88.2908 67° East 268 308 6,700 -1,659 Descending Houston Center
Sun 08:23:46 PM 30.5547 -88.2150 66° East 261 300 5,200 -878 Descending Houston Center
Sun 08:24:47 PM 30.5822 -88.1381 67° East 262 302 4,900 -98 Descending Houston Center
Sun 08:25:49 PM 30.6092 -88.0664 66° East 254 292 5,000 -49 Climbing Houston Center
Sun 08:26:50 PM 30.6461 -88.0019 56° Northeast 250 288 4,800 -787 Descending Houston Center
Sun 08:27:51 PM 30.6528 -87.9317 84° East 235 270 3,400 -927 Descending Houston Center
Sun 08:28:53 PM 30.6456 -87.8786 99° East 194 223 2,900 -439 Descending Houston Center
Sun 08:29:54 PM 30.6281 -87.8372 116° Southeast 171 197 2,500 -634 Descending Houston Center
Sun 08:30:56 PM 30.5950 -87.8489 197° South 123 142 1,600 -439 Descending Houston Center
Sun 08:31:57 PM 30.5664 -87.8614 201° Southwest 114 131 1,600 -98 Level Houston Center
Sun 08:32:58 PM 30.5319 -87.8656 186° South 114 131 1,400 -197 Descending Houston Center
Sun 08:34:00 PM 30.4638 -87.8665 181° South  Level FlightAware Approximate

Login

Don't have an account? Register now (free) for customized features, flight alerts, and more!